Time;durP1;ratioP1;P1;durP2;ratioP2;P2;SDS_P1;SDS_P2;PMS_P1;PMS_P2;Temp;Humidity;BMP_temperature;BMP_pressure;BME280_temperature;BME280_humidity;BME280_pressure;Samples;Min_cycle;Max_cycle;Signal;HPM_P1;HPM_P2
2024/01/05 00:03:36;;;;;;;4.00;2.00;;;;;;;17.30;60.72;99754.56;10536318;28;20790;-47
2024/01/05 00:08:36;;;;;;;4.57;1.73;;;;;;;17.25;61.41;99737.50;10530851;28;20282;-48
2024/01/05 00:13:37;;;;;;;4.10;2.50;;;;;;;17.26;61.04;99740.97;10520941;28;20642;-48
2024/01/05 00:18:37;;;;;;;2.80;1.70;;;;;;;17.29;60.97;99737.69;10536035;28;20262;-48
2024/01/05 00:23:37;;;;;;;4.50;1.97;;;;;;;17.26;61.02;99724.91;10535707;28;20286;-47
2024/01/05 00:28:38;;;;;;;3.90;1.90;;;;;;;17.28;59.52;99724.59;10535734;28;20290;-47
2024/01/05 00:33:42;;;;;;;5.97;2.50;;;;;;;17.29;61.17;99710.13;10516737;28;20562;-44
2024/01/05 00:38:47;;;;;;;3.17;1.65;;;;;;;17.29;60.12;99700.19;10535361;28;20273;-48
2024/01/05 00:43:47;;;;;;;2.67;1.83;;;;;;;17.28;61.25;99687.06;10534608;28;20064;-48
2024/01/05 00:48:47;;;;;;;4.10;2.13;;;;;;;17.28;59.81;99682.50;10516231;28;20534;-44
2024/01/05 00:53:48;;;;;;;4.53;2.20;;;;;;;17.31;60.63;99675.75;10534583;28;20328;-48
2024/01/05 00:58:48;;;;;;;3.53;1.80;;;;;;;17.30;60.00;99674.19;10534487;28;20764;-49
2024/01/05 01:03:48;;;;;;;3.70;2.10;;;;;;;17.29;60.31;99667.25;10534069;28;20281;-47
2024/01/05 01:08:49;;;;;;;2.27;1.43;;;;;;;17.30;59.85;99658.09;10526781;28;20309;-47
2024/01/05 01:13:49;;;;;;;4.20;1.85;;;;;;;17.27;60.24;99662.19;10502595;28;21245;-48
2024/01/05 01:18:49;;;;;;;4.23;2.67;;;;;;;17.28;60.01;99649.56;10533828;28;20031;-46
2024/01/05 01:23:50;;;;;;;2.83;1.70;;;;;;;17.31;59.90;99646.28;10533376;28;20024;-45
2024/01/05 01:28:51;;;;;;;2.95;2.05;;;;;;;17.28;59.90;99642.31;10533691;28;20323;-46
2024/01/05 01:33:51;;;;;;;4.63;1.70;;;;;;;17.30;60.42;99636.69;10533187;28;20062;-48
2024/01/05 01:38:52;;;;;;;4.27;1.80;;;;;;;17.31;60.11;99639.03;10533107;28;20309;-46
2024/01/05 01:43:52;;;;;;;5.47;2.17;;;;;;;17.28;60.91;99636.97;10532716;28;20032;-46
2024/01/05 01:48:53;;;;;;;2.73;1.73;;;;;;;17.28;60.00;99631.59;10532966;28;20039;-49
2024/01/05 01:53:53;;;;;;;2.88;1.55;;;;;;;17.28;60.84;99623.56;10532362;28;20330;-45
2024/01/05 01:58:54;;;;;;;6.17;1.83;;;;;;;17.28;60.18;99615.53;10516620;28;20073;-47
2024/01/05 02:03:54;;;;;;;2.95;1.67;;;;;;;17.30;59.92;99605.31;10522900;28;20288;-45
2024/01/05 02:08:54;;;;;;;3.87;1.73;;;;;;;17.30;60.45;99602.63;10541125;28;20082;-47
2024/01/05 02:13:54;;;;;;;2.50;1.40;;;;;;;17.28;59.80;99590.63;10540301;28;20294;-51
2024/01/05 02:18:55;;;;;;;3.13;1.50;;;;;;;17.30;60.09;99575.06;10541035;28;20680;-49
2024/01/05 02:23:55;;;;;;;3.67;1.63;;;;;;;17.29;60.61;99568.13;10540207;28;20024;-47
2024/01/05 02:28:56;;;;;;;2.88;1.58;;;;;;;17.29;60.50;99554.72;10540673;28;20043;-45
2024/01/05 02:33:56;;;;;;;2.90;1.60;;;;;;;17.32;59.54;99559.44;10539655;28;20054;-48
2024/01/05 02:38:57;;;;;;;2.40;1.40;;;;;;;17.28;60.79;99543.19;10521852;28;20016;-46
2024/01/05 02:43:57;;;;;;;3.63;1.50;;;;;;;17.29;59.45;99530.63;10539629;28;20023;-45
2024/01/05 02:48:57;;;;;;;3.07;1.77;;;;;;;17.29;59.61;99522.56;10539797;28;20791;-46
2024/01/05 02:53:57;;;;;;;3.40;1.50;;;;;;;17.29;60.26;99526.03;10521025;28;20326;-48
2024/01/05 02:58:58;;;;;;;4.18;1.90;;;;;;;17.31;60.44;99518.47;10539459;28;20532;-47
2024/01/05 03:04:00;;;;;;;3.27;1.30;;;;;;;17.29;59.67;99506.50;10538567;28;20024;-45
2024/01/05 03:09:01;;;;;;;2.28;1.27;;;;;;;17.29;60.08;99503.81;10538844;28;20282;-47
2024/01/05 03:14:01;;;;;;;3.83;1.33;;;;;;;17.32;59.21;99497.81;10519940;28;20065;-44
2024/01/05 03:19:01;;;;;;;3.67;2.05;;;;;;;17.30;60.33;99486.66;10538315;28;20024;-49
2024/01/05 03:24:02;;;;;;;2.73;1.33;;;;;;;17.30;60.06;99462.53;10538052;28;20065;-47
2024/01/05 03:29:02;;;;;;;2.03;1.15;;;;;;;17.30;60.08;99468.69;10538241;28;20285;-46
2024/01/05 03:34:02;;;;;;;3.55;1.48;;;;;;;17.28;60.77;99454.00;10537810;28;20016;-48
2024/01/05 03:39:03;;;;;;;2.33;1.23;;;;;;;17.32;59.71;99442.34;10537932;28;20024;-45
2024/01/05 03:44:04;;;;;;;3.15;1.30;;;;;;;17.29;59.29;99431.50;10536822;28;20028;-45
2024/01/05 03:49:04;;;;;;;1.60;0.90;;;;;;;17.30;60.56;99430.38;10537577;28;20032;-48
2024/01/05 03:54:04;;;;;;;2.07;1.40;;;;;;;17.32;59.39;99434.31;10536707;28;20055;-50
2024/01/05 03:59:05;;;;;;;1.80;1.02;;;;;;;17.32;60.10;99428.16;10518847;28;20361;-46
2024/01/05 04:04:05;;;;;;;2.30;1.10;;;;;;;17.32;60.33;99420.13;10536359;28;20048;-47
2024/01/05 04:09:09;;;;;;;2.73;1.17;;;;;;;17.31;58.96;99411.31;10529671;28;20277;-48
2024/01/05 04:14:09;;;;;;;1.70;1.00;;;;;;;17.31;59.20;99405.16;10535899;28;20135;-46
2024/01/05 04:19:10;;;;;;;1.87;0.90;;;;;;;17.31;59.84;99405.16;10536284;28;20027;-46
2024/01/05 04:24:10;;;;;;;1.80;1.03;;;;;;;17.32;59.24;99396.03;10534740;28;20389;-45
2024/01/05 04:29:11;;;;;;;1.95;1.17;;;;;;;17.29;60.02;99397.44;10517559;28;20289;-48
2024/01/05 04:34:11;;;;;;;2.20;1.10;;;;;;;17.28;59.61;99390.50;10535062;28;20028;-47
2024/01/05 04:39:12;;;;;;;2.77;1.20;;;;;;;17.32;59.23;99382.63;10535248;28;20785;-46
2024/01/05 04:44:13;;;;;;;2.08;1.20;;;;;;;17.32;60.14;99385.31;10534465;28;20303;-46
2024/01/05 04:49:13;;;;;;;1.83;1.00;;;;;;;17.33;59.11;99363.53;10534899;28;20020;-49
2024/01/05 04:54:13;;;;;;;1.73;1.00;;;;;;;17.33;59.75;99362.75;10534367;28;20024;-45
2024/01/05 04:59:14;;;;;;;2.93;1.00;;;;;;;17.32;59.75;99364.66;10534667;28;20324;-46
2024/01/05 05:04:17;;;;;;;2.63;1.40;;;;;;;17.31;58.69;99344.34;10534024;28;20328;-48
2024/01/05 05:09:17;;;;;;;1.75;0.80;;;;;;;17.30;59.33;99347.34;10522835;28;20282;-45
2024/01/05 05:14:18;;;;;;;2.43;0.97;;;;;;;17.29;59.61;99337.72;10524690;28;20051;-47
2024/01/05 05:19:18;;;;;;;2.43;1.10;;;;;;;17.30;58.76;99340.09;10534175;28;20293;-46
2024/01/05 05:24:18;;;;;;;2.53;1.23;;;;;;;17.30;59.22;99339.28;10533607;28;20034;-46
2024/01/05 05:29:19;;;;;;;1.73;1.02;;;;;;;17.29;59.15;99335.06;10533858;28;20320;-46
2024/01/05 05:34:19;;;;;;;3.20;1.10;;;;;;;17.24;59.60;99320.72;10532871;28;20028;-48
2024/01/05 05:39:20;;;;;;;2.03;1.20;;;;;;;17.27;58.86;99310.44;10533126;28;20270;-45
2024/01/05 05:44:20;;;;;;;2.33;0.77;;;;;;;17.29;60.21;99303.69;10532904;28;20028;-45
2024/01/05 05:49:20;;;;;;;1.70;0.97;;;;;;;17.29;60.34;99305.59;10533029;28;20286;-48
2024/01/05 05:54:20;;;;;;;2.03;1.17;;;;;;;17.28;60.22;99302.09;10519179;28;20255;-46
2024/01/05 05:59:21;;;;;;;2.03;1.53;;;;;;;17.30;60.29;99301.78;10508391;28;20289;-45
2024/01/05 06:04:21;;;;;;;1.67;0.70;;;;;;;17.29;59.20;99306.38;10531995;28;20274;-47
2024/01/05 06:09:21;;;;;;;1.83;0.73;;;;;;;17.31;59.69;99293.44;10526524;28;20328;-45
2024/01/05 06:14:22;;;;;;;5.73;1.20;;;;;;;17.37;59.64;99294.81;10510577;28;20773;-47
2024/01/05 06:19:22;;;;;;;2.60;1.13;;;;;;;17.36;59.31;99301.28;10493458;28;20286;-46
2024/01/05 06:24:23;;;;;;;3.85;0.93;;;;;;;17.41;60.26;99301.13;10519471;28;20273;-43
2024/01/05 06:29:23;;;;;;;2.33;0.87;;;;;;;17.35;60.41;99296.25;10527190;28;20024;-45
2024/01/05 06:34:23;;;;;;;2.77;1.20;;;;;;;17.42;59.30;99294.66;10531791;28;20737;-46
2024/01/05 06:39:23;;;;;;;2.73;1.23;;;;;;;17.48;60.77;99300.59;10532028;28;20274;-51
2024/01/05 06:44:24;;;;;;;8.63;1.67;;;;;;;17.44;61.11;99297.78;10532649;28;20273;-49
2024/01/05 06:49:25;;;;;;;3.30;0.97;;;;;;;17.48;60.15;99303.28;10524740;28;20282;-47
2024/01/05 06:54:25;;;;;;;9.70;1.95;;;;;;;17.46;62.02;99303.59;10534825;28;20320;-49
2024/01/05 06:59:30;;;;;;;6.67;1.40;;;;;;;17.40;60.83;99307.56;10519456;28;20024;-48
2024/01/05 07:04:30;;;;;;;7.15;1.88;;;;;;;17.40;61.30;99306.78;10517099;28;20322;-46
2024/01/05 07:09:30;;;;;;;9.15;1.83;;;;;;;17.38;61.68;99303.63;10518865;28;20514;-45
2024/01/05 07:14:31;;;;;;;10.30;1.88;;;;;;;17.35;61.13;99310.44;10538259;28;20051;-44
2024/01/05 07:19:31;;;;;;;5.15;1.63;;;;;;;17.31;60.85;99298.78;10538498;28;20467;-47
2024/01/05 07:24:33;;;;;;;5.60;1.38;;;;;;;17.25;61.91;99303.53;10529539;28;20043;-51
2024/01/05 07:29:34;;;;;;;6.07;1.70;;;;;;;17.28;61.35;99307.44;10510907;28;20044;-49
2024/01/05 07:34:34;;;;;;;8.10;2.05;;;;;;;17.20;62.34;99301.03;10534029;28;20055;-45
2024/01/05 07:39:35;;;;;;;19.00;2.33;;;;;;;17.17;61.76;99299.00;10538116;28;20027;-47
2024/01/05 07:44:35;;;;;;;11.35;2.30;;;;;;;17.19;62.08;99299.47;10537398;28;20111;-48
2024/01/05 07:49:35;;;;;;;14.77;3.33;;;;;;;17.17;61.23;99314.28;10520887;28;20020;-47
2024/01/05 07:54:39;;;;;;;14.18;2.67;;;;;;;17.19;62.14;99296.00;10510498;28;20031;-46
2024/01/05 07:59:39;;;;;;;15.73;3.60;;;;;;;17.10;61.03;99305.94;10517495;28;20494;-48
2024/01/05 08:04:40;;;;;;;14.63;2.70;;;;;;;17.09;61.30;99307.06;10536964;28;20062;-48
2024/01/05 08:09:42;;;;;;;20.13;2.90;;;;;;;17.05;61.59;99300.75;10531666;28;20277;-47
2024/01/05 08:14:42;;;;;;;23.17;4.15;;;;;;;17.04;62.25;99297.28;10533807;28;20286;-46
2024/01/05 08:19:42;;;;;;;11.70;2.42;;;;;;;16.97;60.25;99302.34;10535470;28;20471;-45
2024/01/05 08:24:43;;;;;;;20.47;3.17;;;;;;;17.00;60.32;99303.59;10517204;28;20021;-49
2024/01/05 08:29:43;;;;;;;13.37;2.87;;;;;;;17.01;59.80;99300.59;10535120;28;20024;-48
2024/01/05 08:34:43;;;;;;;12.20;2.87;;;;;;;17.00;60.95;99301.72;10535303;28;20288;-46
2024/01/05 08:39:44;;;;;;;12.17;3.57;;;;;;;17.04;60.47;99307.19;10535315;28;20794;-48
2024/01/05 08:44:44;;;;;;;12.90;2.92;;;;;;;17.08;59.74;99300.91;10534764;28;20315;-46
2024/01/05 08:49:44;;;;;;;12.50;2.60;;;;;;;17.11;60.79;99294.13;10534744;28;20077;-46
2024/01/05 08:54:45;;;;;;;7.40;2.27;;;;;;;17.13;60.32;99297.25;10534853;28;20282;-47
2024/01/05 08:59:45;;;;;;;7.38;2.55;;;;;;;17.16;59.55;99285.91;10520497;28;20288;-47
2024/01/05 09:04:46;;;;;;;13.73;2.83;;;;;;;17.18;59.40;99286.38;10534388;28;20028;-46
2024/01/05 09:09:47;;;;;;;6.30;1.52;;;;;;;17.14;59.68;99288.91;10533542;28;20266;-46
2024/01/05 09:14:47;;;;;;;3.70;1.30;;;;;;;17.11;60.62;99296.81;10533771;28;20044;-47
2024/01/05 09:19:48;;;;;;;5.70;1.85;;;;;;;17.09;60.67;99291.78;10533268;28;20759;-46
2024/01/05 09:24:48;;;;;;;8.13;1.60;;;;;;;17.11;59.86;99310.97;10533631;28;20066;-48
2024/01/05 09:29:48;;;;;;;6.03;1.47;;;;;;;17.10;59.84;99313.97;10515144;28;20342;-45
2024/01/05 09:34:49;;;;;;;7.05;1.85;;;;;;;17.11;59.83;99310.19;10533199;28;20272;-47
2024/01/05 09:39:49;;;;;;;6.13;1.20;;;;;;;17.11;59.42;99313.66;10533146;28;20375;-47
2024/01/05 09:44:51;;;;;;;6.50;1.57;;;;;;;17.10;59.98;99314.75;10533036;28;20296;-46
2024/01/05 09:49:52;;;;;;;4.88;1.40;;;;;;;17.10;60.23;99327.38;10514600;28;20278;-47
2024/01/05 09:54:52;;;;;;;2.65;1.25;;;;;;;17.11;60.58;99331.63;10533027;28;20020;-46
2024/01/05 09:59:53;;;;;;;3.97;1.17;;;;;;;17.11;60.48;99334.28;10532486;28;20039;-47
2024/01/05 10:04:54;;;;;;;3.45;1.02;;;;;;;17.13;59.70;99334.75;10532494;28;20024;-45
2024/01/05 10:09:55;;;;;;;3.50;1.25;;;;;;;17.14;59.03;99329.06;10525704;28;20024;-45
2024/01/05 10:15:06;;;;;;;2.75;0.82;;;;;;;17.13;60.39;99324.03;10532772;28;20045;-46
2024/01/05 10:20:12;;;;;;;3.83;1.50;;;;;;;17.16;59.96;99316.16;10534325;28;20463;-45
2024/01/05 10:25:21;;;;;;;6.50;1.23;;;;;;;17.17;58.62;99319.63;10540570;28;20082;-45
2024/01/05 10:30:28;;;;;;;2.47;1.17;;;;;;;17.19;58.65;99317.44;10540107;28;20043;-45
2024/01/05 10:35:30;;;;;;;2.67;0.82;;;;;;;17.19;59.09;99315.53;10540576;28;20102;-46
2024/01/05 10:40:32;;;;;;;1.35;0.90;;;;;;;17.19;58.97;99315.53;10539787;28;20032;-46
2024/01/05 10:45:33;;;;;;;3.03;0.75;;;;;;;17.20;59.40;99319.00;10540143;28;20016;-47
2024/01/05 10:50:37;;;;;;;1.95;0.65;;;;;;;17.22;59.17;99308.75;10521132;28;20024;-45
2024/01/05 10:55:38;;;;;;;1.50;0.60;;;;;;;17.21;59.73;99312.53;10539657;28;20028;-46
2024/01/05 11:00:38;;;;;;;2.25;0.82;;;;;;;17.19;58.33;99309.38;10538878;28;20471;-47
2024/01/05 11:05:43;;;;;;;1.98;0.70;;;;;;;17.17;58.30;99303.56;10538954;28;20024;-47
2024/01/05 11:11:28;;;;;;;3.88;0.60;;;;;;;17.16;59.81;99316.16;10538327;28;20067;-46
2024/01/05 11:17:08;;;;;;;1.60;0.80;;;;;;;17.19;58.72;99312.84;10367543;28;20034;-46
2024/01/05 11:22:10;;;;;;;;;;;;;;;17.17;58.60;99306.25;10367435;28;20144;-47
2024/01/05 11:27:33;;;;;;;3.17;0.50;;;;;;;17.14;58.16;99299.63;10344657;28;19917;-49
2024/01/05 11:32:33;;;;;;;2.58;0.60;;;;;;;17.17;58.07;99303.56;10366823;28;20064;-46
2024/01/05 11:37:34;;;;;;;1.52;0.88;;;;;;;17.17;58.32;99292.84;10367310;28;20092;-46
2024/01/05 11:42:34;;;;;;;0.80;0.47;;;;;;;17.15;58.81;99308.44;10337501;28;20037;-49
2024/01/05 11:47:41;;;;;;;4.10;0.77;;;;;;;17.20;59.28;99297.56;10366620;28;20327;-44
2024/01/05 11:52:41;;;;;;;3.47;0.60;;;;;;;17.18;58.08;99292.53;10508442;28;20036;-45
2024/01/05 11:57:42;;;;;;;2.05;0.40;;;;;;;17.14;59.67;99277.41;10537278;28;20042;-47
2024/01/05 12:02:42;;;;;;;3.22;0.47;;;;;;;17.16;58.21;99273.28;10518369;28;20425;-46
2024/01/05 12:07:42;;;;;;;1.60;0.47;;;;;;;17.15;59.09;99278.97;10536672;28;20074;-49
2024/01/05 12:12:43;;;;;;;2.13;0.50;;;;;;;17.15;58.55;99289.69;10535955;28;20324;-45
2024/01/05 12:17:43;;;;;;;1.80;0.47;;;;;;;17.14;58.81;99280.88;10536248;28;20276;-47
2024/01/05 12:22:43;;;;;;;1.37;0.50;;;;;;;17.12;58.11;99275.06;10535729;28;20552;-47
2024/01/05 12:27:44;;;;;;;0.93;0.30;;;;;;;17.17;58.13;99274.09;10535986;28;20290;-47
2024/01/05 12:32:45;;;;;;;1.77;0.30;;;;;;;17.16;59.31;99267.16;10535398;28;20062;-47
2024/01/05 12:37:52;;;;;;;0.77;0.30;;;;;;;17.14;59.14;99261.34;10535466;28;20289;-47
2024/01/05 12:42:53;;;;;;;1.05;0.30;;;;;;;17.16;58.37;99259.13;10534306;28;20028;-46
2024/01/05 12:47:53;;;;;;;1.63;0.75;;;;;;;17.14;58.39;99255.97;10534974;28;20031;-46
2024/01/05 12:52:54;;;;;;;0.80;0.37;;;;;;;17.15;58.84;99254.88;10534248;28;20463;-47
2024/01/05 12:58:03;;;;;;;1.30;0.60;;;;;;;17.14;59.00;99256.75;10534804;28;20299;-46
2024/01/05 13:03:03;;;;;;;2.43;0.40;;;;;;;17.12;58.80;99256.31;10534707;28;20047;-47
2024/01/05 13:08:04;;;;;;;1.45;0.95;;;;;;;17.13;59.64;99246.38;10533401;28;20030;-50
2024/01/05 13:13:04;;;;;;;1.00;0.50;;;;;;;17.15;58.55;99250.31;10527773;28;20142;-47
2024/01/05 13:18:05;;;;;;;1.80;0.30;;;;;;;17.13;57.94;99241.03;10532350;28;20054;-46
2024/01/05 13:23:05;;;;;;;0.83;0.30;;;;;;;17.13;57.86;99235.66;10532071;28;20376;-45
2024/01/05 13:28:05;;;;;;;1.23;0.30;;;;;;;17.14;58.57;99232.66;10514046;28;20294;-46
2024/01/05 13:33:06;;;;;;;0.97;0.30;;;;;;;17.19;59.01;99235.19;10531670;28;20326;-49
2024/01/05 13:38:06;;;;;;;1.15;0.40;;;;;;;17.19;57.84;99239.75;10531680;28;20269;-51
2024/01/05 13:43:07;;;;;;;0.53;0.27;;;;;;;17.13;59.32;99235.66;10519132;28;20043;-45
2024/01/05 13:48:08;;;;;;;0.95;0.43;;;;;;;17.13;59.12;99236.44;10531295;28;20289;-48
2024/01/05 13:53:12;;;;;;;1.40;0.43;;;;;;;17.16;58.48;99243.84;10520397;28;20036;-47
2024/01/05 13:58:13;;;;;;;1.33;0.40;;;;;;;17.19;57.60;99253.94;10530491;28;20296;-46
2024/01/05 14:03:14;;;;;;;1.65;0.45;;;;;;;17.18;58.19;99256.94;10530975;28;20030;-47
2024/01/05 14:08:15;;;;;;;0.90;0.30;;;;;;;17.19;57.75;99264.63;10528513;28;20025;-44
2024/01/05 14:13:15;;;;;;;0.73;0.30;;;;;;;17.19;58.02;99271.88;10470841;28;1217912;-48
2024/01/05 14:18:16;;;;;;;0.93;0.30;;;;;;;17.18;58.37;99279.16;10532526;28;20036;-44
2024/01/05 14:23:16;;;;;;;3.13;0.70;;;;;;;17.15;58.87;99285.13;10532003;28;20520;-45
2024/01/05 14:28:16;;;;;;;10.23;1.80;;;;;;;17.30;58.41;99294.53;10532169;28;20301;-48
2024/01/05 14:33:17;;;;;;;12.57;1.63;;;;;;;17.36;58.77;99300.50;10531765;28;20286;-45
2024/01/05 14:38:17;;;;;;;15.17;2.37;;;;;;;17.33;59.40;99309.97;10532110;28;20296;-46
2024/01/05 14:43:17;;;;;;;14.23;2.80;;;;;;;17.36;59.99;99324.59;10531884;28;20282;-47
2024/01/05 14:48:18;;;;;;;13.10;3.43;;;;;;;17.34;59.54;99327.59;10531721;28;20306;-49
2024/01/05 14:53:18;;;;;;;13.30;2.67;;;;;;;17.28;58.87;99334.22;10531475;28;20267;-49
2024/01/05 14:58:18;;;;;;;18.57;5.67;;;;;;;17.29;60.11;99348.44;10531981;28;20024;-46
2024/01/05 15:03:23;;;;;;;16.13;3.03;;;;;;;17.21;59.19;99350.81;10531267;28;20282;-48
2024/01/05 15:08:24;;;;;;;11.43;2.83;;;;;;;17.15;60.25;99354.75;10533485;28;20293;-49
2024/01/05 15:13:24;;;;;;;14.17;2.37;;;;;;;17.10;59.46;99364.88;10535774;28;20537;-47
2024/01/05 15:18:26;;;;;;;17.60;2.40;;;;;;;17.14;59.18;99379.97;10538812;28;20280;-46
2024/01/05 15:23:26;;;;;;;13.00;2.58;;;;;;;17.15;58.70;99386.09;10519836;28;20286;-47
2024/01/05 15:28:27;;;;;;;12.70;3.03;;;;;;;17.17;59.56;99405.34;10538037;28;20020;-47
2024/01/05 15:33:28;;;;;;;8.20;2.25;;;;;;;17.16;58.26;99411.78;10537844;28;20303;-46
2024/01/05 15:38:28;;;;;;;7.27;1.93;;;;;;;17.17;58.18;99422.22;10537988;28;20056;-46
2024/01/05 15:43:28;;;;;;;7.47;1.83;;;;;;;17.14;59.36;99430.84;10519054;28;20274;-49
2024/01/05 15:48:29;;;;;;;7.03;1.87;;;;;;;17.18;58.95;99439.06;10537812;28;20753;-49
2024/01/05 15:53:30;;;;;;;5.40;2.10;;;;;;;17.21;57.84;99449.13;10537022;28;20327;-50
2024/01/05 15:58:30;;;;;;;11.60;2.35;;;;;;;17.20;58.08;99464.44;10518943;28;20286;-48
2024/01/05 16:03:31;;;;;;;6.53;2.10;;;;;;;17.19;59.24;99470.88;10532036;28;20409;-49
2024/01/05 16:08:31;;;;;;;5.17;1.60;;;;;;;17.18;58.13;99480.03;10524829;28;20289;-49
2024/01/05 16:13:31;;;;;;;7.53;1.50;;;;;;;17.18;57.98;99488.06;10514999;28;20300;-47
2024/01/05 16:18:32;;;;;;;6.55;2.00;;;;;;;17.18;58.51;99498.78;10516338;28;20284;-47
2024/01/05 16:23:32;;;;;;;10.18;1.65;;;;;;;17.18;59.33;99509.50;10536034;28;20466;-48
2024/01/05 16:28:32;;;;;;;3.13;1.10;;;;;;;17.19;58.20;99521.78;10535229;28;20019;-46
2024/01/05 16:33:33;;;;;;;4.75;1.30;;;;;;;17.27;57.57;99535.47;10512098;28;20274;-46
2024/01/05 16:38:35;;;;;;;5.22;1.67;;;;;;;17.20;59.16;99544.78;10507959;28;20552;-46
2024/01/05 16:43:36;;;;;;;10.13;1.45;;;;;;;17.23;57.28;99554.06;10506344;28;20050;-48
2024/01/05 16:48:37;;;;;;;8.18;1.88;;;;;;;17.27;57.88;99559.59;10509993;28;20027;-47
2024/01/05 16:53:37;;;;;;;5.40;1.27;;;;;;;17.18;57.93;99570.31;10519152;28;20036;-47
2024/01/05 16:58:37;;;;;;;5.70;1.10;;;;;;;17.13;57.63;99581.94;10532729;28;20020;-48
2024/01/05 17:03:38;;;;;;;5.17;2.03;;;;;;;17.13;57.85;99591.88;10528337;28;20630;-48
2024/01/05 17:08:38;;;;;;;6.90;3.97;;;;;;;17.20;56.71;99602.94;10522568;28;20294;-49
2024/01/05 17:13:38;;;;;;;7.23;3.67;;;;;;;17.24;57.44;99606.53;10525045;28;20376;-48
2024/01/05 17:18:39;;;;;;;10.65;3.42;;;;;;;17.32;58.82;99616.50;10525660;28;20272;-45
2024/01/05 17:23:40;;;;;;;9.93;3.40;;;;;;;17.34;61.05;99629.56;10533507;28;20036;-48
2024/01/05 17:28:41;;;;;;;11.48;2.08;;;;;;;17.39;59.12;99638.25;10533413;28;20757;-47
2024/01/05 17:33:41;;;;;;;10.00;1.83;;;;;;;17.25;58.14;99642.94;10533021;28;20024;-46
2024/01/05 17:38:41;;;;;;;20.60;3.20;;;;;;;17.25;58.26;99653.66;10533784;28;20267;-48
2024/01/05 17:43:42;;;;;;;18.45;3.47;;;;;;;17.28;57.64;99660.28;10533028;28;20270;-48
2024/01/05 17:48:42;;;;;;;10.30;2.50;;;;;;;17.23;58.09;99662.03;10532745;28;20089;-47
2024/01/05 17:53:43;;;;;;;10.98;3.00;;;;;;;17.37;57.64;99677.97;10512503;28;20273;-50
2024/01/05 17:58:44;;;;;;;11.88;2.53;;;;;;;17.41;56.23;99684.28;10520284;28;20021;-49
2024/01/05 18:03:44;;;;;;;11.27;2.47;;;;;;;17.39;57.38;99694.50;10529785;28;20020;-47
2024/01/05 18:08:44;;;;;;;6.33;2.70;;;;;;;17.37;57.44;99690.56;10531615;28;20441;-46
2024/01/05 18:13:45;;;;;;;9.70;2.65;;;;;;;17.37;56.43;99701.28;10509070;28;20305;-46
2024/01/05 18:18:45;;;;;;;9.57;2.07;;;;;;;17.34;56.08;99713.44;10508092;28;20028;-47
2024/01/05 18:23:45;;;;;;;8.55;2.10;;;;;;;17.30;56.29;99723.19;10530442;28;20035;-48
2024/01/05 18:28:46;;;;;;;10.30;1.73;;;;;;;17.30;56.62;99727.75;10513601;28;20111;-47
2024/01/05 18:33:46;;;;;;;8.15;1.98;;;;;;;17.32;56.36;99734.38;10532008;28;20671;-46
2024/01/05 18:38:50;;;;;;;8.57;2.73;;;;;;;17.31;56.60;99735.50;10511682;28;20024;-48
2024/01/05 18:43:50;;;;;;;4.15;1.90;;;;;;;17.32;56.39;99747.00;10536327;28;20270;-46
2024/01/05 18:48:51;;;;;;;3.15;1.48;;;;;;;17.30;57.94;99759.91;10539666;28;20110;-48
2024/01/05 18:53:51;;;;;;;4.83;2.33;;;;;;;17.29;57.56;99769.84;10539645;28;20027;-46
2024/01/05 18:58:51;;;;;;;7.93;2.17;;;;;;;17.31;57.30;99775.69;10539654;28;20266;-48
2024/01/05 19:03:52;;;;;;;5.60;1.67;;;;;;;17.31;56.33;99782.94;10538847;28;20729;-49
2024/01/05 19:08:52;;;;;;;3.73;1.57;;;;;;;17.28;57.64;99786.19;10539012;28;20343;-47
2024/01/05 19:13:53;;;;;;;4.00;1.57;;;;;;;17.27;56.62;99790.78;10538404;28;20109;-49
2024/01/05 19:18:53;;;;;;;5.25;2.22;;;;;;;17.26;56.62;99797.22;10538908;28;20281;-47
2024/01/05 19:23:53;;;;;;;3.10;1.40;;;;;;;17.23;57.77;99805.88;10538202;28;20363;-47
2024/01/05 19:28:54;;;;;;;2.10;1.20;;;;;;;17.17;57.43;99815.19;10537187;28;20294;-48
2024/01/05 19:33:54;;;;;;;4.77;1.83;;;;;;;17.18;57.58;99820.22;10538013;28;20737;-48
2024/01/05 19:38:54;;;;;;;7.13;1.77;;;;;;;17.21;57.17;99824.16;10518134;28;20264;-48
2024/01/05 19:43:54;;;;;;;5.10;1.40;;;;;;;17.20;58.61;99825.28;10535878;28;20274;-46
2024/01/05 19:48:55;;;;;;;8.97;2.00;;;;;;;17.22;58.53;99829.22;10535828;28;20297;-47
2024/01/05 19:53:55;;;;;;;3.47;1.57;;;;;;;17.24;57.87;99844.97;10535687;28;20796;-48
2024/01/05 19:58:55;;;;;;;3.92;1.30;;;;;;;17.25;57.49;99852.69;10535367;28;20270;-47
2024/01/05 20:03:56;;;;;;;5.63;1.30;;;;;;;17.25;57.83;99855.38;10534844;28;20032;-45
2024/01/05 20:08:56;;;;;;;5.67;1.90;;;;;;;17.22;57.40;99864.03;10533678;28;20998;-46
2024/01/05 20:13:57;;;;;;;3.20;1.30;;;;;;;17.25;57.51;99866.09;10533244;28;20290;-49
2024/01/05 20:19:00;;;;;;;5.40;2.10;;;;;;;17.27;57.42;99881.06;10534454;28;20557;-51
2024/01/05 20:24:02;;;;;;;4.43;1.35;;;;;;;17.20;57.98;99893.03;10527599;28;20738;-49
2024/01/05 20:29:02;;;;;;;5.28;1.42;;;;;;;17.22;59.20;99888.16;10527479;28;20123;-45
2024/01/05 20:34:04;;;;;;;6.35;1.48;;;;;;;17.23;57.77;99899.66;10535280;28;20123;-48
2024/01/05 20:39:05;;;;;;;6.68;1.83;;;;;;;17.21;58.51;99897.28;10517453;28;20104;-50
2024/01/05 20:44:05;;;;;;;4.18;1.63;;;;;;;17.25;58.30;99906.28;10473644;28;20024;-48
2024/01/05 20:49:05;;;;;;;3.30;1.20;;;;;;;17.23;57.70;99907.69;10506661;28;20055;-47
2024/01/05 20:54:06;;;;;;;3.50;1.10;;;;;;;17.21;57.57;99929.44;10509100;28;20016;-47
2024/01/05 20:59:06;;;;;;;2.97;1.48;;;;;;;17.22;59.06;99933.69;10510730;28;20748;-48
2024/01/05 21:04:07;;;;;;;6.90;2.00;;;;;;;17.21;58.35;99936.69;10534053;28;20527;-45
2024/01/05 21:09:07;;;;;;;4.55;1.42;;;;;;;17.20;58.04;99943.13;10534068;28;20290;-45
2024/01/05 21:14:08;;;;;;;3.17;1.20;;;;;;;17.23;57.24;99946.00;10534177;28;20048;-48
2024/01/05 21:19:08;;;;;;;3.42;1.23;;;;;;;17.21;57.30;99950.06;10533918;28;20270;-48
2024/01/05 21:24:08;;;;;;;2.93;1.70;;;;;;;17.19;58.77;99955.75;10534133;28;20085;-46
2024/01/05 21:29:08;;;;;;;5.00;1.60;;;;;;;17.25;57.46;99959.06;10533432;28;20374;-48
2024/01/05 21:34:09;;;;;;;2.83;1.40;;;;;;;17.20;57.95;99962.69;10533678;28;20033;-47
2024/01/05 21:39:10;;;;;;;2.87;1.60;;;;;;;17.24;57.58;99962.84;10498141;28;20282;-46
2024/01/05 21:44:10;;;;;;;3.05;1.20;;;;;;;17.21;58.56;99972.28;10533374;28;20279;-49
2024/01/05 21:49:10;;;;;;;2.37;1.33;;;;;;;17.21;57.40;99968.84;10532723;28;20016;-48
2024/01/05 21:54:11;;;;;;;2.53;1.17;;;;;;;17.22;57.94;99973.09;10533064;28;20343;-48
2024/01/05 21:59:11;;;;;;;2.53;1.40;;;;;;;17.22;58.42;99986.47;10532599;28;20034;-46
2024/01/05 22:04:12;;;;;;;4.03;1.92;;;;;;;17.20;57.48;99988.69;10532856;28;20337;-46
2024/01/05 22:09:12;;;;;;;3.85;1.70;;;;;;;17.17;58.44;99987.41;10525898;28;20032;-46
2024/01/05 22:14:13;;;;;;;2.45;1.33;;;;;;;17.19;58.90;99997.81;10532623;28;20573;-46
2024/01/05 22:19:14;;;;;;;2.63;1.48;;;;;;;17.20;57.69;100013.59;10539996;28;20020;-46
2024/01/05 22:24:14;;;;;;;2.17;1.20;;;;;;;17.18;58.91;100012.31;10541113;28;20023;-46
2024/01/05 22:29:14;;;;;;;3.08;1.10;;;;;;;17.19;57.72;100012.00;10540283;28;20297;-48
2024/01/05 22:34:15;;;;;;;4.17;1.40;;;;;;;17.19;58.37;100022.72;10509286;28;20032;-50
2024/01/05 22:39:15;;;;;;;2.60;1.43;;;;;;;17.18;58.17;100013.09;10521637;28;20270;-48
2024/01/05 22:44:15;;;;;;;2.27;1.40;;;;;;;17.20;58.06;100026.97;10540293;28;20286;-47
2024/01/05 22:49:16;;;;;;;2.65;1.45;;;;;;;17.22;58.43;100026.66;10539741;28;20289;-45
2024/01/05 22:54:16;;;;;;;2.05;1.33;;;;;;;17.20;57.46;100031.53;10539712;28;20069;-47
2024/01/05 22:59:16;;;;;;;4.53;1.47;;;;;;;17.18;57.28;100039.09;10539487;28;20023;-46
2024/01/05 23:04:17;;;;;;;2.60;1.33;;;;;;;17.20;57.74;100043.06;10539188;28;20288;-47
2024/01/05 23:09:17;;;;;;;3.80;1.40;;;;;;;17.23;57.01;100057.72;10538758;28;20286;-49
2024/01/05 23:14:17;;;;;;;3.20;1.50;;;;;;;17.21;57.79;100060.72;10539137;28;20043;-46
2024/01/05 23:19:18;;;;;;;2.40;1.30;;;;;;;17.22;57.40;100069.53;10538652;28;20277;-46